createdAt,value
2018-12-11T00:02:19.850Z,2.40
2018-12-11T00:05:03.806Z,2.30
2018-12-11T00:07:46.059Z,2.30
2018-12-11T00:10:27.882Z,2.30
2018-12-11T00:13:09.650Z,2.30
2018-12-11T00:15:51.799Z,2.30
2018-12-11T00:18:33.772Z,2.40
2018-12-11T00:21:15.865Z,2.40
2018-12-11T00:23:58.038Z,2.50
2018-12-11T00:26:40.298Z,2.60
2018-12-11T00:29:22.149Z,2.70
2018-12-11T00:32:04.215Z,2.90
2018-12-11T00:34:45.998Z,3.00
2018-12-11T00:37:27.978Z,3.10
2018-12-11T00:40:10.069Z,3.10
2018-12-11T00:42:52.329Z,3.10
2018-12-11T00:45:34.125Z,3.10
2018-12-11T00:48:16.390Z,3.10
2018-12-11T00:50:59.388Z,3.20
2018-12-11T00:53:41.579Z,3.30
2018-12-11T00:56:23.852Z,3.30
2018-12-11T00:59:05.704Z,3.30
2018-12-11T01:01:47.570Z,3.30
2018-12-11T01:04:29.611Z,3.30
2018-12-11T01:07:11.501Z,3.30
2018-12-11T01:09:53.690Z,3.30
2018-12-11T01:12:35.715Z,3.20
2018-12-11T01:15:17.677Z,3.20
2018-12-11T01:17:59.787Z,3.10
2018-12-11T01:20:43.193Z,3.00
2018-12-11T01:23:25.004Z,2.90
2018-12-11T01:26:06.737Z,2.80
2018-12-11T01:28:48.865Z,2.70
2018-12-11T01:31:31.010Z,2.70
2018-12-11T01:34:13.139Z,2.80
2018-12-11T01:36:55.499Z,2.80
2018-12-11T01:39:37.317Z,2.80
2018-12-11T01:42:19.470Z,2.80
2018-12-11T01:45:01.284Z,2.80
2018-12-11T01:47:43.483Z,2.80
2018-12-11T01:50:25.293Z,2.80
2018-12-11T01:53:07.883Z,2.80
2018-12-11T01:55:51.417Z,2.80
2018-12-11T01:58:33.636Z,2.80
2018-12-11T02:01:15.769Z,2.70
2018-12-11T02:03:57.954Z,2.70
2018-12-11T02:06:40.046Z,2.60
2018-12-11T02:09:22.185Z,2.60
2018-12-11T02:12:04.317Z,2.60
2018-12-11T02:14:46.053Z,2.60
2018-12-11T02:17:28.110Z,2.60
2018-12-11T02:20:10.122Z,2.60
2018-12-11T02:22:52.050Z,2.60
2018-12-11T02:25:34.086Z,2.60
2018-12-11T02:28:16.157Z,2.60
2018-12-11T02:30:58.279Z,2.60
2018-12-11T02:33:40.558Z,2.60
2018-12-11T02:36:22.693Z,2.60
2018-12-11T02:39:07.374Z,2.50
2018-12-11T02:41:49.441Z,2.40
2018-12-11T02:44:31.723Z,2.30
2018-12-11T02:47:13.729Z,2.20
2018-12-11T02:49:55.590Z,2.10
2018-12-11T02:52:37.775Z,2.00
2018-12-11T02:55:20.003Z,1.90
2018-12-11T02:58:02.158Z,1.80
2018-12-11T03:00:43.962Z,1.70
2018-12-11T03:03:26.026Z,1.60
2018-12-11T03:06:07.891Z,1.40
2018-12-11T03:08:49.927Z,1.30
2018-12-11T03:11:31.986Z,1.30
2018-12-11T03:14:13.793Z,1.20
2018-12-11T03:16:56.029Z,1.20
2018-12-11T03:19:37.953Z,1.10
2018-12-11T03:22:19.597Z,1.10
2018-12-11T03:25:01.574Z,1.00
2018-12-11T03:27:44.662Z,0.90
2018-12-11T03:30:26.839Z,0.90
2018-12-11T03:33:08.824Z,0.80
2018-12-11T03:35:50.897Z,0.80
2018-12-11T03:38:32.728Z,0.80
2018-12-11T03:41:14.798Z,0.80
2018-12-11T03:43:56.645Z,0.70
2018-12-11T03:46:38.795Z,0.70
2018-12-11T03:49:20.789Z,0.70
2018-12-11T03:52:02.835Z,0.70
2018-12-11T03:54:44.827Z,0.70
2018-12-11T03:57:27.142Z,0.70
2018-12-11T04:00:10.139Z,0.70
2018-12-11T04:02:52.150Z,0.70
2018-12-11T04:05:34.007Z,0.70
2018-12-11T04:08:15.957Z,0.70
2018-12-11T04:10:58.097Z,0.70
2018-12-11T04:13:40.118Z,0.70
2018-12-11T04:16:22.102Z,0.70
2018-12-11T04:19:04.046Z,0.70
2018-12-11T04:21:45.955Z,0.80
2018-12-11T04:24:28.013Z,0.80
2018-12-11T04:27:11.998Z,0.70
2018-12-11T04:29:54.511Z,0.70
2018-12-11T04:32:36.295Z,0.70
2018-12-11T04:35:18.472Z,0.70
2018-12-11T04:38:00.316Z,0.70
2018-12-11T04:40:42.295Z,0.60
2018-12-11T04:43:24.183Z,0.50
2018-12-11T04:46:06.322Z,0.40
2018-12-11T04:48:48.126Z,0.30
2018-12-11T04:51:30.205Z,0.20
2018-12-11T04:54:12.294Z,0.30
2018-12-11T04:56:54.633Z,0.30
2018-12-11T04:59:36.506Z,0.40
2018-12-11T05:02:18.749Z,0.50
2018-12-11T05:05:00.450Z,0.50
2018-12-11T05:07:42.633Z,0.60
2018-12-11T05:10:24.564Z,0.80
2018-12-11T05:13:06.562Z,0.90
2018-12-11T05:15:48.559Z,1.00
2018-12-11T05:18:30.510Z,1.00
2018-12-11T05:21:12.502Z,1.00
2018-12-11T05:23:54.705Z,1.10
2018-12-11T05:26:36.357Z,1.20
2018-12-11T05:29:18.389Z,1.20
2018-12-11T05:32:00.597Z,1.20
2018-12-11T05:34:42.573Z,1.10
2018-12-11T05:37:24.746Z,1.10
2018-12-11T05:40:06.758Z,1.10
2018-12-11T05:42:49.804Z,1.10
2018-12-11T05:45:31.925Z,1.10
2018-12-11T05:48:14.110Z,1.10
2018-12-11T05:50:55.793Z,1.10
2018-12-11T05:53:37.914Z,1.10
2018-12-11T05:56:19.696Z,1.10
2018-12-11T05:59:01.807Z,1.00
2018-12-11T06:01:43.705Z,1.00
2018-12-11T06:04:25.776Z,1.00
2018-12-11T06:07:08.037Z,1.00
2018-12-11T06:09:49.904Z,1.10
2018-12-11T06:12:32.053Z,1.10
2018-12-11T06:15:13.969Z,1.20
2018-12-11T06:17:56.002Z,1.20
2018-12-11T06:20:37.746Z,1.20
2018-12-11T06:23:19.770Z,1.30
2018-12-11T06:26:01.685Z,1.30
2018-12-11T06:28:43.913Z,1.40
2018-12-11T06:31:25.862Z,1.50
2018-12-11T06:34:08.181Z,1.50
2018-12-11T06:36:50.366Z,1.50
2018-12-11T06:39:32.162Z,1.50
2018-12-11T06:42:14.155Z,1.50
2018-12-11T06:44:56.309Z,1.50
2018-12-11T06:47:38.390Z,1.50
2018-12-11T06:50:20.573Z,1.50
2018-12-11T06:53:02.528Z,1.50
2018-12-11T06:55:44.437Z,1.40
2018-12-11T06:58:26.478Z,1.40
2018-12-11T07:01:08.493Z,1.30
2018-12-11T07:03:50.358Z,1.30
2018-12-11T07:06:32.462Z,1.40
2018-12-11T07:09:14.430Z,1.50
2018-12-11T07:11:56.491Z,1.50
2018-12-11T07:14:38.476Z,1.50
2018-12-11T07:17:20.464Z,1.50
2018-12-11T07:20:02.461Z,1.40
2018-12-11T07:22:45.490Z,1.30
2018-12-11T07:25:27.657Z,1.20
2018-12-11T07:28:09.642Z,1.10
2018-12-11T07:30:51.818Z,1.00
2018-12-11T07:33:33.564Z,0.90
2018-12-11T07:36:15.610Z,0.90
2018-12-11T07:38:57.615Z,0.80
2018-12-11T07:41:39.758Z,0.80
2018-12-11T07:44:21.635Z,0.70
2018-12-11T07:47:03.828Z,0.70
2018-12-11T07:49:45.733Z,0.70
2018-12-11T07:52:27.654Z,0.70
2018-12-11T07:55:09.552Z,0.60
2018-12-11T07:57:51.641Z,0.60
2018-12-11T08:00:33.847Z,0.60
2018-12-11T08:03:15.515Z,0.60
2018-12-11T08:05:57.668Z,0.60
2018-12-11T08:08:39.726Z,0.60
2018-12-11T08:11:21.950Z,0.70
2018-12-11T08:14:04.138Z,0.70
2018-12-11T08:16:45.933Z,0.70
2018-12-11T08:19:27.909Z,0.80
2018-12-11T08:22:09.802Z,0.90
2018-12-11T08:24:52.016Z,0.90
2018-12-11T08:27:34.130Z,1.00
2018-12-11T08:30:16.142Z,1.10
2018-12-11T08:32:58.126Z,1.10
2018-12-11T08:35:39.953Z,1.10
2018-12-11T08:38:21.883Z,1.20
2018-12-11T08:41:03.970Z,1.10
2018-12-11T08:43:46.011Z,1.10
2018-12-11T08:46:28.199Z,1.10
2018-12-11T08:49:10.434Z,1.10
2018-12-11T08:51:52.174Z,1.20
2018-12-11T08:54:34.194Z,1.40
2018-12-11T08:57:15.987Z,1.60
2018-12-11T08:59:58.186Z,1.80
2018-12-11T09:02:40.237Z,2.10
2018-12-11T09:05:22.079Z,2.40
2018-12-11T09:08:04.225Z,2.70
2018-12-11T09:10:46.188Z,3.20
2018-12-11T09:13:28.214Z,4.10
2018-12-11T09:16:10.134Z,5.80
2018-12-11T09:18:52.307Z,7.40
2018-12-11T09:21:34.621Z,8.90
2018-12-11T09:24:16.540Z,9.60
2018-12-11T09:26:58.706Z,10.20
2018-12-11T09:29:40.610Z,10.10
2018-12-11T09:32:22.806Z,9.70
2018-12-11T09:35:05.299Z,9.20
2018-12-11T09:37:47.613Z,9.20
2018-12-11T09:40:29.735Z,9.60
2018-12-11T09:43:11.510Z,9.80
2018-12-11T09:45:53.594Z,9.60
2018-12-11T09:48:35.647Z,9.50
2018-12-11T09:51:17.863Z,9.60
2018-12-11T09:54:00.659Z,9.50
2018-12-11T09:56:42.741Z,9.50
2018-12-11T09:59:24.986Z,9.50
2018-12-11T10:02:07.459Z,9.10
2018-12-11T10:04:49.694Z,8.40
2018-12-11T10:07:32.001Z,7.80
2018-12-11T10:10:14.098Z,7.20
2018-12-11T10:12:56.298Z,6.70
2018-12-11T10:15:38.393Z,6.30
2018-12-11T10:18:20.533Z,5.90
2018-12-11T10:21:02.742Z,5.70
2018-12-11T10:23:44.934Z,5.60
2018-12-11T10:26:27.004Z,5.40
2018-12-11T10:29:08.811Z,5.40
2018-12-11T10:31:50.732Z,5.40
2018-12-11T10:34:33.055Z,5.40
2018-12-11T10:37:15.082Z,5.40
2018-12-11T10:39:57.069Z,5.50
2018-12-11T10:42:39.086Z,5.60
2018-12-11T10:45:21.169Z,5.80
2018-12-11T10:48:04.313Z,5.90
2018-12-11T10:50:46.118Z,6.10
2018-12-11T10:53:28.369Z,6.40
2018-12-11T10:56:10.410Z,6.60
2018-12-11T10:58:52.490Z,6.70
2018-12-11T11:01:37.626Z,6.70
2018-12-11T11:04:19.878Z,6.70
2018-12-11T11:07:01.770Z,6.60
2018-12-11T11:09:43.966Z,6.60
2018-12-11T11:12:26.029Z,6.70
2018-12-11T11:15:08.757Z,6.70
2018-12-11T11:17:51.145Z,6.70
2018-12-11T11:20:32.917Z,6.80
2018-12-11T11:23:14.869Z,7.00
2018-12-11T11:25:56.836Z,7.20
2018-12-11T11:28:38.893Z,7.40
2018-12-11T11:31:20.870Z,7.50
2018-12-11T11:34:02.810Z,7.60
2018-12-11T11:36:44.840Z,7.70
2018-12-11T11:39:26.925Z,7.90
2018-12-11T11:42:08.816Z,8.10
2018-12-11T11:44:50.958Z,8.30
2018-12-11T11:47:32.762Z,8.40
2018-12-11T11:50:18.447Z,8.50
2018-12-11T11:53:01.751Z,8.50
2018-12-11T11:55:43.751Z,8.50
2018-12-11T11:58:25.609Z,8.40
2018-12-11T12:01:07.678Z,8.20
2018-12-11T12:03:49.629Z,8.10
2018-12-11T12:06:31.842Z,8.00
2018-12-11T12:09:13.996Z,8.00
2018-12-11T12:11:56.102Z,8.00
2018-12-11T12:14:37.806Z,8.00
2018-12-11T12:17:19.940Z,8.00
2018-12-11T12:20:02.053Z,8.00
2018-12-11T12:22:43.928Z,8.00
2018-12-11T12:25:25.877Z,8.10
2018-12-11T12:28:07.987Z,8.10
2018-12-11T12:30:50.709Z,8.10
2018-12-11T12:33:33.072Z,8.20
2018-12-11T12:36:14.897Z,8.30
2018-12-11T12:38:56.957Z,8.50
2018-12-11T12:41:38.877Z,9.30
2018-12-11T12:44:21.073Z,10.40
2018-12-11T12:47:02.858Z,11.20
2018-12-11T12:49:50.403Z,12.00
2018-12-11T12:52:28.714Z,12.90
2018-12-11T12:55:10.993Z,14.00
2018-12-11T12:57:53.130Z,15.10
2018-12-11T13:00:35.190Z,15.70
2018-12-11T13:03:17.169Z,15.70
2018-12-11T13:05:59.117Z,15.70
2018-12-11T13:08:40.952Z,15.50
2018-12-11T13:11:23.143Z,15.50
2018-12-11T13:14:05.139Z,15.70
2018-12-11T13:16:47.253Z,16.20
2018-12-11T13:19:29.361Z,15.70
2018-12-11T13:22:12.270Z,14.50
2018-12-11T13:24:54.482Z,14.20
2018-12-11T13:27:36.846Z,14.40
2018-12-11T13:30:21.499Z,15.10
2018-12-11T13:33:04.087Z,16.00
2018-12-11T13:35:46.027Z,16.80
2018-12-11T13:38:28.335Z,17.80
2018-12-11T13:41:10.279Z,18.50
2018-12-11T13:43:52.420Z,19.10
2018-12-11T13:46:34.852Z,19.80
2018-12-11T13:49:17.474Z,20.30
2018-12-11T13:51:59.567Z,20.70
2018-12-11T13:54:41.538Z,20.90
2018-12-11T13:57:23.161Z,21.20
2018-12-11T14:00:06.198Z,21.20
2018-12-11T14:02:48.276Z,20.80
2018-12-11T14:05:30.320Z,20.30
2018-12-11T14:08:12.250Z,19.60
2018-12-11T14:10:54.294Z,19.30
2018-12-11T14:13:36.298Z,19.40
2018-12-11T14:16:18.326Z,19.50
2018-12-11T14:19:00.252Z,19.10
2018-12-11T14:21:42.007Z,17.60
2018-12-11T14:24:24.123Z,16.00
2018-12-11T14:27:05.806Z,15.70
2018-12-11T14:29:47.558Z,16.10
2018-12-11T14:32:29.628Z,16.50
2018-12-11T14:35:11.341Z,16.60
2018-12-11T14:37:53.354Z,16.60
2018-12-11T14:40:35.433Z,16.40
2018-12-11T14:43:17.465Z,16.20
2018-12-11T14:45:59.590Z,15.90
2018-12-11T14:48:41.486Z,15.20
2018-12-11T14:51:23.627Z,13.90
2018-12-11T14:54:05.994Z,12.80
2018-12-11T14:56:47.992Z,12.40
2018-12-11T14:59:29.841Z,12.10
2018-12-11T15:02:12.210Z,11.50
2018-12-11T15:04:54.114Z,10.60
2018-12-11T15:07:36.432Z,9.70
2018-12-11T15:10:18.544Z,9.00
2018-12-11T15:13:00.418Z,8.30
2018-12-11T15:15:42.370Z,7.80
2018-12-11T15:18:24.195Z,7.40
2018-12-11T15:21:06.357Z,7.00
2018-12-11T15:23:48.273Z,6.80
2018-12-11T15:26:30.123Z,6.50
2018-12-11T15:29:12.211Z,6.30
2018-12-11T15:31:54.130Z,6.10
2018-12-11T15:34:36.236Z,5.90
2018-12-11T15:37:18.513Z,5.70
2018-12-11T15:40:00.586Z,5.60
2018-12-11T15:42:42.464Z,5.40
2018-12-11T15:45:24.362Z,5.20
2018-12-11T15:48:06.573Z,5.00
2018-12-11T15:50:48.467Z,4.90
2018-12-11T15:53:30.407Z,4.80
2018-12-11T15:56:12.597Z,4.60
2018-12-11T15:58:54.345Z,4.50
2018-12-11T16:01:36.594Z,4.40
2018-12-11T16:04:18.618Z,4.20
2018-12-11T16:07:00.697Z,4.20
2018-12-11T16:09:42.608Z,4.10
2018-12-11T16:12:24.833Z,3.90
2018-12-11T16:15:06.887Z,3.80
2018-12-11T16:17:48.662Z,3.70
2018-12-11T16:20:30.681Z,3.60
2018-12-11T16:23:12.656Z,3.50
2018-12-11T16:25:54.824Z,3.50
2018-12-11T16:28:36.514Z,3.50
2018-12-11T16:31:18.365Z,3.40
2018-12-11T16:34:00.497Z,3.40
2018-12-11T16:36:42.566Z,3.40
2018-12-11T16:39:24.612Z,3.40
2018-12-11T16:42:06.622Z,3.50
2018-12-11T16:44:48.522Z,3.50
2018-12-11T16:47:30.366Z,3.50
2018-12-11T16:50:12.347Z,3.60
2018-12-11T16:52:54.046Z,3.70
2018-12-11T16:55:36.114Z,3.80
2018-12-11T16:58:17.931Z,3.80
2018-12-11T17:01:00.014Z,3.80
2018-12-11T17:03:41.831Z,3.80
2018-12-11T17:06:23.813Z,3.90
2018-12-11T17:09:09.240Z,3.90
2018-12-11T17:11:50.999Z,3.90
2018-12-11T17:14:33.406Z,3.90
2018-12-11T17:17:15.073Z,3.90
2018-12-11T17:19:57.315Z,3.90
2018-12-11T17:22:39.414Z,3.90
2018-12-11T17:25:22.161Z,3.90
2018-12-11T17:28:05.204Z,3.80
2018-12-11T17:30:47.139Z,3.80
2018-12-11T17:33:29.174Z,3.90
2018-12-11T17:36:11.054Z,3.90
2018-12-11T17:38:53.282Z,4.00
2018-12-11T17:41:35.341Z,3.90
2018-12-11T17:44:17.212Z,4.00
2018-12-11T17:46:59.044Z,4.00
2018-12-11T17:49:41.165Z,4.00
2018-12-11T17:52:23.005Z,4.00
2018-12-11T17:55:05.344Z,4.10
2018-12-11T17:57:47.054Z,4.10
2018-12-11T18:00:29.281Z,4.10
2018-12-11T18:03:11.463Z,4.10
2018-12-11T18:05:53.659Z,4.10
2018-12-11T18:08:35.815Z,4.10
2018-12-11T18:11:17.977Z,4.10
2018-12-11T18:14:02.012Z,4.00
2018-12-11T18:16:44.214Z,4.00
2018-12-11T18:19:26.182Z,4.00
2018-12-11T18:22:08.122Z,3.90
2018-12-11T18:24:49.969Z,3.90
2018-12-11T18:27:32.159Z,3.80
2018-12-11T18:30:14.355Z,3.80
2018-12-11T18:32:56.081Z,3.70
2018-12-11T18:35:38.235Z,3.60
2018-12-11T18:38:20.173Z,3.60
2018-12-11T18:41:02.401Z,3.60
2018-12-11T18:43:45.578Z,3.60
2018-12-11T18:46:27.562Z,3.50
2018-12-11T18:49:09.404Z,3.40
2018-12-11T18:51:51.402Z,3.40
2018-12-11T18:54:33.259Z,3.40
2018-12-11T18:57:15.230Z,3.30
2018-12-11T18:59:58.386Z,3.30
2018-12-11T19:02:40.518Z,3.30
2018-12-11T19:05:22.549Z,3.30
2018-12-11T19:08:05.865Z,3.30
2018-12-11T19:10:47.749Z,3.30
2018-12-11T19:13:31.677Z,3.30
2018-12-11T19:16:14.022Z,3.40
2018-12-11T19:18:56.090Z,3.40
2018-12-11T19:21:38.353Z,3.40
2018-12-11T19:24:32.317Z,3.50
2018-12-11T19:27:14.289Z,3.50
2018-12-11T19:29:56.380Z,3.50
2018-12-11T19:32:38.499Z,3.40
2018-12-11T19:35:21.410Z,3.30
2018-12-11T19:38:05.103Z,3.30
2018-12-11T19:40:47.271Z,3.30
2018-12-11T19:43:29.356Z,3.20
2018-12-11T19:46:11.472Z,3.20
2018-12-11T19:48:53.805Z,3.20
2018-12-11T19:51:35.584Z,3.20
2018-12-11T19:54:17.217Z,3.20
2018-12-11T19:56:59.447Z,3.10
2018-12-11T19:59:41.469Z,3.10
2018-12-11T20:02:23.629Z,3.20
2018-12-11T20:05:06.091Z,3.20
2018-12-11T20:07:47.620Z,3.20
2018-12-11T20:10:29.911Z,3.30
2018-12-11T20:13:11.819Z,3.30
2018-12-11T20:15:53.926Z,3.30
2018-12-11T20:18:35.653Z,3.30
2018-12-11T20:21:17.821Z,3.30
2018-12-11T20:24:04.958Z,3.20
2018-12-11T20:26:44.748Z,3.20
2018-12-11T20:29:26.695Z,3.30
2018-12-11T20:32:08.569Z,3.30
2018-12-11T20:34:50.924Z,3.30
2018-12-11T20:37:32.864Z,3.30
2018-12-11T20:40:14.913Z,3.30
2018-12-11T20:42:58.301Z,3.30
2018-12-11T20:45:39.963Z,3.40
2018-12-11T20:48:23.047Z,3.40
2018-12-11T20:51:06.943Z,3.50
2018-12-11T20:53:49.160Z,3.50
2018-12-11T20:56:31.041Z,3.60
2018-12-11T20:59:13.298Z,3.70
2018-12-11T21:01:55.454Z,3.70
2018-12-11T21:04:37.215Z,3.70
2018-12-11T21:07:20.366Z,3.70
2018-12-11T21:10:02.614Z,3.70
2018-12-11T21:12:44.603Z,3.80
2018-12-11T21:15:26.782Z,3.70
2018-12-11T21:18:08.983Z,3.70
2018-12-11T21:20:50.989Z,3.70
2018-12-11T21:23:33.170Z,3.70
2018-12-11T21:26:15.514Z,3.60
2018-12-11T21:28:57.571Z,3.60
2018-12-11T21:31:39.732Z,3.70
2018-12-11T21:34:21.530Z,3.60
2018-12-11T21:37:03.382Z,3.60
2018-12-11T21:39:45.645Z,3.60
2018-12-11T21:42:27.394Z,3.60
2018-12-11T21:45:09.570Z,3.60
2018-12-11T21:47:51.299Z,3.60
2018-12-11T21:50:33.370Z,3.60
2018-12-11T21:53:15.497Z,3.60
2018-12-11T21:55:57.138Z,3.60
2018-12-11T21:58:39.186Z,3.50
2018-12-11T22:01:21.345Z,3.50
2018-12-11T22:04:03.122Z,3.40
2018-12-11T22:06:45.217Z,3.40
2018-12-11T22:09:27.189Z,3.40
2018-12-11T22:12:09.186Z,3.30
2018-12-11T22:14:51.285Z,3.30
2018-12-11T22:17:33.553Z,3.30
2018-12-11T22:20:15.645Z,3.30
2018-12-11T22:22:57.725Z,3.40
2018-12-11T22:25:39.707Z,3.40
2018-12-11T22:28:21.799Z,3.50
2018-12-11T22:31:04.005Z,3.50
2018-12-11T22:33:45.811Z,3.50
2018-12-11T22:36:27.853Z,3.40
2018-12-11T22:39:09.738Z,3.40
2018-12-11T22:41:51.952Z,3.40
2018-12-11T22:44:34.046Z,3.40
2018-12-11T22:47:15.941Z,3.40
2018-12-11T22:49:57.922Z,3.40
2018-12-11T22:52:40.181Z,3.40
2018-12-11T22:55:22.282Z,3.30
2018-12-11T22:58:04.201Z,3.30
2018-12-11T23:00:47.706Z,3.30
2018-12-11T23:03:30.197Z,3.30
2018-12-11T23:06:12.146Z,3.30
2018-12-11T23:08:54.259Z,3.30
2018-12-11T23:11:36.337Z,3.30
2018-12-11T23:14:18.375Z,3.30
2018-12-11T23:17:00.493Z,3.30
2018-12-11T23:19:42.569Z,3.30
2018-12-11T23:22:24.598Z,3.40
2018-12-11T23:25:06.918Z,3.40
2018-12-11T23:27:49.615Z,3.40
2018-12-11T23:30:31.702Z,3.40
2018-12-11T23:33:13.645Z,3.40
2018-12-11T23:35:55.454Z,3.30
2018-12-11T23:38:37.532Z,3.40
2018-12-11T23:41:19.522Z,3.40
2018-12-11T23:44:01.594Z,3.40
2018-12-11T23:46:43.687Z,3.40
2018-12-11T23:49:25.565Z,3.40
2018-12-11T23:52:07.330Z,3.30
2018-12-11T23:54:49.203Z,3.30
2018-12-11T23:57:31.509Z,3.30
